createdAt,value
2019-04-20T00:01:28.161Z,50.90
2019-04-20T00:03:53.665Z,50.40
2019-04-20T00:06:22.789Z,50.70
2019-04-20T00:08:59.957Z,51.40
2019-04-20T00:11:30.790Z,50.60
2019-04-20T00:14:03.217Z,50.50
2019-04-20T00:16:23.561Z,50.60
2019-04-20T00:18:56.620Z,50.00
2019-04-20T00:21:43.102Z,49.70
2019-04-20T00:24:26.881Z,49.30
2019-04-20T00:29:41.141Z,49.20
2019-04-20T00:32:05.382Z,50.10
2019-04-20T00:34:30.099Z,50.50
2019-04-20T00:36:56.049Z,49.80
2019-04-20T00:39:25.876Z,49.70
2019-04-20T00:42:00.435Z,49.80
2019-04-20T00:44:33.110Z,49.60
2019-04-20T00:47:11.178Z,49.80
2019-04-20T00:49:41.627Z,49.20
2019-04-20T00:52:23.737Z,49.70
2019-04-20T00:54:28.461Z,50.10
2019-04-20T00:57:09.349Z,50.10
2019-04-20T00:59:43.037Z,48.80
2019-04-20T01:02:16.929Z,50.00
2019-04-20T01:04:50.833Z,49.70
2019-04-20T01:07:17.602Z,49.80
2019-04-20T01:09:41.300Z,49.70
2019-04-20T01:12:16.415Z,49.50
2019-04-20T01:14:48.735Z,50.00
2019-04-20T01:17:13.445Z,48.60
2019-04-20T01:19:42.562Z,49.70
2019-04-20T01:22:16.228Z,50.10
2019-04-20T01:24:46.268Z,51.10
2019-04-20T01:27:31.134Z,50.20
2019-04-20T01:29:49.357Z,49.70
2019-04-20T01:32:23.276Z,48.90
2019-04-20T01:34:55.294Z,48.70
2019-04-20T01:37:29.235Z,50.00
2019-04-20T01:39:50.821Z,49.30
2019-04-20T01:42:17.498Z,49.20
2019-04-20T01:44:50.123Z,49.40
2019-04-20T01:47:17.156Z,50.00
2019-04-20T01:49:47.559Z,50.30
2019-04-20T01:52:23.388Z,51.30
2019-04-20T01:55:23.371Z,51.60
2019-04-20T01:57:57.860Z,51.90
2019-04-20T02:00:35.237Z,51.70
2019-04-20T02:03:24.086Z,52.20
2019-04-20T02:05:55.639Z,52.30
2019-04-20T02:08:24.387Z,52.60
2019-04-20T02:10:55.840Z,52.70
2019-04-20T02:13:26.153Z,53.10
2019-04-20T02:15:57.830Z,53.40
2019-04-20T02:18:35.940Z,52.50
2019-04-20T02:21:09.418Z,53.10
2019-04-20T02:23:33.627Z,53.10
2019-04-20T02:25:56.630Z,53.00
2019-04-20T02:28:57.165Z,53.20
2019-04-20T02:34:03.909Z,53.80
2019-04-20T02:49:35.921Z,52.30
2019-04-20T03:01:50.217Z,53.40
2019-04-20T03:04:04.886Z,52.80
2019-04-20T03:06:48.639Z,52.80
2019-04-20T03:09:26.957Z,52.20
2019-04-20T03:12:04.499Z,52.50
2019-04-20T03:14:21.815Z,52.00
2019-04-20T03:16:51.751Z,52.90
2019-04-20T03:19:22.298Z,53.30
2019-04-20T03:22:02.298Z,53.60
2019-04-20T03:24:31.079Z,52.80
2019-04-20T03:26:59.823Z,52.80
2019-04-20T03:29:37.368Z,52.90
2019-04-20T03:32:42.481Z,52.50
2019-04-20T03:37:12.797Z,53.00
2019-04-20T03:39:38.892Z,53.30
2019-04-20T03:41:54.887Z,53.90
2019-04-20T03:44:25.554Z,54.00
2019-04-20T03:46:57.574Z,53.10
2019-04-20T03:49:48.203Z,52.30
2019-04-20T03:52:28.795Z,52.80
2019-04-20T03:54:55.259Z,52.40
2019-04-20T03:57:38.354Z,52.30
2019-04-20T04:00:21.890Z,52.60
2019-04-20T04:03:08.965Z,52.40
2019-04-20T04:05:24.790Z,52.90
2019-04-20T04:07:45.562Z,52.30
2019-04-20T04:10:24.928Z,52.50
2019-04-20T04:12:59.259Z,52.80
2019-04-20T04:15:29.569Z,52.90
2019-04-20T04:18:07.496Z,53.50
2019-04-20T04:20:38.734Z,53.80
2019-04-20T04:23:19.457Z,53.40
2019-04-20T04:25:48.345Z,53.30
2019-04-20T04:28:20.236Z,53.60
2019-04-20T04:30:47.577Z,52.70
2019-04-20T04:35:52.724Z,52.50
2019-04-20T04:38:27.453Z,52.50
2019-04-20T04:41:03.227Z,52.80
2019-04-20T04:43:25.651Z,52.50
2019-04-20T04:45:36.958Z,53.60
2019-04-20T04:48:13.146Z,53.70
2019-04-20T04:50:44.538Z,53.50
2019-04-20T04:53:20.633Z,52.60
2019-04-20T04:55:47.732Z,53.40
2019-04-20T04:58:10.595Z,53.90
2019-04-20T05:00:40.799Z,54.00
2019-04-20T05:03:28.582Z,53.30
2019-04-20T05:06:06.571Z,53.00
2019-04-20T05:08:27.304Z,52.40
2019-04-20T05:10:50.357Z,52.70
2019-04-20T05:13:19.940Z,52.30
2019-04-20T05:16:05.285Z,54.10
2019-04-20T05:18:44.991Z,53.40
2019-04-20T05:21:10.725Z,52.70
2019-04-20T05:23:45.792Z,52.20
2019-04-20T05:26:26.837Z,52.20
2019-04-20T05:28:53.324Z,51.30
2019-04-20T05:31:15.595Z,50.90
2019-04-20T05:34:08.545Z,49.90
2019-04-20T05:36:37.262Z,50.10
2019-04-20T05:39:17.266Z,47.70
2019-04-20T05:41:40.616Z,48.00
2019-04-20T05:44:04.696Z,46.20
2019-04-20T05:46:40.990Z,46.60
2019-04-20T05:49:17.127Z,45.50
2019-04-20T05:51:42.420Z,44.80
2019-04-20T05:54:13.864Z,44.40
2019-04-20T05:56:45.885Z,45.50
2019-04-20T05:59:11.659Z,44.90
2019-04-20T06:01:53.276Z,45.30
2019-04-20T06:04:12.844Z,44.40
2019-04-20T06:06:49.605Z,42.70
2019-04-20T06:09:24.000Z,42.50
2019-04-20T06:12:04.351Z,41.80
2019-04-20T06:14:10.142Z,42.40
2019-04-20T06:16:55.906Z,41.40
2019-04-20T06:19:31.893Z,41.80
2019-04-20T06:22:03.581Z,39.50
2019-04-20T06:24:49.508Z,39.30
2019-04-20T06:27:10.392Z,38.70
2019-04-20T06:29:38.017Z,38.70
2019-04-20T06:32:10.988Z,39.40
2019-04-20T06:34:37.908Z,39.50
2019-04-20T06:37:06.944Z,39.20
2019-04-20T06:39:42.644Z,39.80
2019-04-20T06:42:15.290Z,39.90
2019-04-20T06:44:39.277Z,39.40
2019-04-20T06:47:21.157Z,38.60
2019-04-20T06:50:01.762Z,37.70
2019-04-20T06:54:58.116Z,35.70
2019-04-20T06:57:34.773Z,34.60
2019-04-20T07:00:10.234Z,35.40
2019-04-20T07:02:41.777Z,35.10
2019-04-20T07:05:12.771Z,34.80
2019-04-20T07:07:43.412Z,35.00
2019-04-20T07:12:39.576Z,33.70
2019-04-20T07:15:06.491Z,33.00
2019-04-20T07:17:54.631Z,32.40
2019-04-20T07:20:26.169Z,32.10
2019-04-20T07:23:15.739Z,33.00
2019-04-20T07:25:31.116Z,31.50
2019-04-20T07:28:05.826Z,31.80
2019-04-20T07:30:39.202Z,36.50
2019-04-20T07:33:04.173Z,40.60
2019-04-20T07:35:35.779Z,42.40
2019-04-20T07:38:23.440Z,42.10
2019-04-20T07:40:38.286Z,42.20
2019-04-20T07:43:09.269Z,42.10
2019-04-20T07:45:37.615Z,42.30
2019-04-20T07:48:15.534Z,42.10
2019-04-20T07:50:42.122Z,42.20
2019-04-20T07:53:18.793Z,41.90
2019-04-20T07:55:55.185Z,41.50
2019-04-20T07:58:15.894Z,41.40
2019-04-20T08:01:02.558Z,41.40
2019-04-20T08:03:42.592Z,41.10
2019-04-20T08:06:01.423Z,40.90
2019-04-20T08:08:37.768Z,40.90
2019-04-20T08:11:13.878Z,40.60
2019-04-20T08:16:29.540Z,41.90
2019-04-20T08:18:49.946Z,41.90
2019-04-20T08:21:25.549Z,42.00
2019-04-20T08:23:54.034Z,41.60
2019-04-20T08:26:10.886Z,40.70
2019-04-20T08:28:53.496Z,41.10
2019-04-20T08:31:46.345Z,40.70
2019-04-20T08:34:33.591Z,39.90
2019-04-20T08:36:57.141Z,39.80
2019-04-20T08:39:46.739Z,39.00
2019-04-20T08:42:00.542Z,38.70
2019-04-20T08:47:10.269Z,38.80
2019-04-20T08:49:47.458Z,38.80
2019-04-20T08:52:24.218Z,38.60
2019-04-20T08:54:34.465Z,38.70
2019-04-20T08:56:56.727Z,37.50
2019-04-20T08:59:23.723Z,38.50
2019-04-20T09:01:58.096Z,38.70
2019-04-20T09:04:37.386Z,37.40
2019-04-20T09:07:09.766Z,37.60
2019-04-20T09:09:56.482Z,37.60
2019-04-20T09:12:21.189Z,38.00
2019-04-20T09:14:38.459Z,37.60
2019-04-20T09:17:32.508Z,37.30
2019-04-20T09:20:04.713Z,37.80
2019-04-20T09:22:40.651Z,37.20
2019-04-20T09:25:50.890Z,35.90
2019-04-20T09:27:44.955Z,35.80
2019-04-20T09:30:25.793Z,35.20
2019-04-20T09:33:06.514Z,36.60
2019-04-20T09:35:37.142Z,34.20
2019-04-20T09:38:06.071Z,30.70
2019-04-20T09:40:43.471Z,28.80
2019-04-20T09:42:56.786Z,27.60
2019-04-20T09:45:35.885Z,26.30
2019-04-20T09:48:00.558Z,24.60
2019-04-20T09:50:52.233Z,24.00
2019-04-20T09:53:19.787Z,21.00
2019-04-20T09:55:53.614Z,20.70
2019-04-20T09:58:18.126Z,19.30
2019-04-20T10:00:57.964Z,18.40
2019-04-20T10:03:14.765Z,18.70
2019-04-20T10:05:45.417Z,18.70
2019-04-20T10:08:17.504Z,18.20
2019-04-20T10:10:49.053Z,17.90
2019-04-20T10:13:19.563Z,18.30
2019-04-20T10:15:50.022Z,16.70
2019-04-20T10:18:21.778Z,16.40
2019-04-20T10:20:51.783Z,17.40
2019-04-20T10:23:22.687Z,17.50
2019-04-20T10:25:52.549Z,18.80
2019-04-20T10:28:23.468Z,18.20
2019-04-20T10:30:54.734Z,18.90
2019-04-20T10:33:25.704Z,18.70
2019-04-20T10:35:57.328Z,19.30
2019-04-20T10:38:32.389Z,20.00
2019-04-20T10:41:08.372Z,23.70
2019-04-20T10:43:33.317Z,26.20
2019-04-20T10:46:03.529Z,26.20
2019-04-20T10:48:41.536Z,24.80
2019-04-20T10:51:08.217Z,26.90
2019-04-20T10:53:38.363Z,26.40
2019-04-20T10:56:09.606Z,24.30
2019-04-20T10:58:40.046Z,24.10
2019-04-20T11:01:11.561Z,26.90
2019-04-20T11:03:42.632Z,24.10
2019-04-20T11:06:12.602Z,27.60
2019-04-20T11:08:42.557Z,25.80
2019-04-20T11:11:18.013Z,26.40
2019-04-20T11:13:43.993Z,24.90
2019-04-20T11:16:14.735Z,27.80
2019-04-20T11:18:45.227Z,27.80
2019-04-20T11:21:17.451Z,25.80
2019-04-20T11:23:47.991Z,26.00
2019-04-20T11:26:18.142Z,27.80
2019-04-20T11:28:48.332Z,24.30
2019-04-20T11:31:19.934Z,27.10
2019-04-20T11:33:50.066Z,26.60
2019-04-20T11:36:21.261Z,27.70
2019-04-20T11:38:51.235Z,27.00
2019-04-20T11:41:25.545Z,25.50
2019-04-20T11:43:53.785Z,24.40
2019-04-20T11:46:24.849Z,24.30
2019-04-20T11:48:59.361Z,24.60
2019-04-20T11:51:31.772Z,25.70
2019-04-20T11:54:04.219Z,26.60
2019-04-20T11:56:38.887Z,28.50
2019-04-20T11:59:09.456Z,27.90
2019-04-20T12:01:51.948Z,29.80
2019-04-20T12:04:34.276Z,27.00
2019-04-20T12:06:54.946Z,24.20
2019-04-20T12:09:26.177Z,28.20
2019-04-20T12:12:10.441Z,28.80
2019-04-20T12:14:28.435Z,28.50
2019-04-20T12:16:59.519Z,30.00
2019-04-20T12:19:29.433Z,27.80
2019-04-20T12:22:00.027Z,30.30
2019-04-20T12:24:31.185Z,25.80
2019-04-20T12:27:01.042Z,27.00
2019-04-20T12:29:32.068Z,26.20
2019-04-20T12:32:05.267Z,28.30
2019-04-20T12:34:35.005Z,25.20
2019-04-20T12:37:05.076Z,28.90
2019-04-20T12:39:35.347Z,26.80
2019-04-20T12:42:08.991Z,25.40
2019-04-20T12:44:37.652Z,26.80
2019-04-20T12:47:10.184Z,26.40
2019-04-20T12:49:41.373Z,29.00
2019-04-20T12:52:12.439Z,30.00
2019-04-20T12:54:44.495Z,28.80
2019-04-20T12:57:14.502Z,27.90
2019-04-20T12:59:47.189Z,29.50
2019-04-20T13:02:17.535Z,28.10
2019-04-20T13:04:47.576Z,28.70
2019-04-20T13:07:17.750Z,25.90
2019-04-20T13:09:50.651Z,28.10
2019-04-20T13:12:29.094Z,28.00
2019-04-20T13:15:08.662Z,28.00
2019-04-20T13:17:39.984Z,27.70
2019-04-20T13:20:10.129Z,27.00
2019-04-20T13:22:41.154Z,28.00
2019-04-20T13:25:11.127Z,28.30
2019-04-20T13:27:41.023Z,29.60
2019-04-20T13:30:11.159Z,29.10
2019-04-20T13:32:41.544Z,30.90
2019-04-20T13:35:12.182Z,29.50
2019-04-20T13:37:43.465Z,28.10
2019-04-20T13:40:13.667Z,28.50
2019-04-20T13:42:43.703Z,30.00
2019-04-20T13:45:14.965Z,28.40
2019-04-20T13:47:45.254Z,30.00
2019-04-20T13:50:16.057Z,30.40
2019-04-20T13:52:46.870Z,27.60
2019-04-20T13:55:16.971Z,28.90
2019-04-20T13:57:49.530Z,29.80
2019-04-20T14:00:55.512Z,29.40
2019-04-20T14:03:30.020Z,29.00
2019-04-20T14:06:00.565Z,30.00
2019-04-20T14:08:31.512Z,28.50
2019-04-20T14:11:01.365Z,28.80
2019-04-20T14:13:39.214Z,28.70
2019-04-20T14:16:03.100Z,30.10
2019-04-20T14:18:33.298Z,28.30
2019-04-20T14:21:03.097Z,28.00
2019-04-20T14:23:32.959Z,27.70
2019-04-20T14:26:03.144Z,28.00
2019-04-20T14:28:33.498Z,28.80
2019-04-20T14:31:03.779Z,28.20
2019-04-20T14:33:34.903Z,29.20
2019-04-20T14:36:05.196Z,28.80
2019-04-20T14:38:36.187Z,28.00
2019-04-20T14:41:06.395Z,28.40
2019-04-20T14:43:38.086Z,28.50
2019-04-20T14:46:08.515Z,29.60
2019-04-20T14:48:38.595Z,29.40
2019-04-20T14:51:09.767Z,29.10
2019-04-20T14:53:39.689Z,28.10
2019-04-20T14:56:09.945Z,29.30
2019-04-20T14:58:45.183Z,29.50
2019-04-20T15:01:30.220Z,28.90
2019-04-20T15:04:06.788Z,29.30
2019-04-20T15:06:35.822Z,30.00
2019-04-20T15:09:06.459Z,30.30
2019-04-20T15:11:40.813Z,30.60
2019-04-20T15:14:11.051Z,30.20
2019-04-20T15:16:42.564Z,29.20
2019-04-20T15:19:15.591Z,29.60
2019-04-20T15:21:54.090Z,29.70
2019-04-20T15:24:25.538Z,29.50
2019-04-20T15:26:56.443Z,28.10
2019-04-20T15:29:26.488Z,29.50
2019-04-20T15:31:56.662Z,29.10
2019-04-20T15:34:26.893Z,28.90
2019-04-20T15:36:57.965Z,29.30
2019-04-20T15:39:29.376Z,28.50
2019-04-20T15:41:59.582Z,27.90
2019-04-20T15:44:29.449Z,29.30
2019-04-20T15:46:59.452Z,28.60
2019-04-20T15:49:29.623Z,26.50
2019-04-20T15:52:01.746Z,26.00
2019-04-20T15:54:33.703Z,26.20
2019-04-20T15:57:09.843Z,25.90
2019-04-20T15:59:35.258Z,26.20
2019-04-20T16:02:19.033Z,26.40
2019-04-20T16:04:50.722Z,26.00
2019-04-20T16:07:23.362Z,25.90
2019-04-20T16:09:54.872Z,25.80
2019-04-20T16:12:24.954Z,25.50
2019-04-20T16:14:55.489Z,24.50
2019-04-20T16:17:32.743Z,25.60
2019-04-20T16:20:02.913Z,25.10
2019-04-20T16:22:30.997Z,25.40
2019-04-20T16:25:03.570Z,25.30
2019-04-20T16:27:36.178Z,24.30
2019-04-20T16:30:07.563Z,25.00
2019-04-20T16:32:38.552Z,23.50
2019-04-20T16:35:08.769Z,24.20
2019-04-20T16:37:40.046Z,24.30
2019-04-20T16:40:11.341Z,24.10
2019-04-20T16:42:42.724Z,24.90
2019-04-20T16:45:13.089Z,23.80
2019-04-20T16:47:44.138Z,23.90
2019-04-20T16:50:15.019Z,23.80
2019-04-20T16:52:45.046Z,23.50
2019-04-20T16:55:14.945Z,23.60
2019-04-20T16:57:47.584Z,23.10
2019-04-20T17:00:17.786Z,23.20
2019-04-20T17:02:48.005Z,24.60
2019-04-20T17:05:18.929Z,24.40
2019-04-20T17:07:53.679Z,26.80
2019-04-20T17:10:23.857Z,25.40
2019-04-20T17:12:53.878Z,25.80
2019-04-20T17:15:23.804Z,25.50
2019-04-20T17:17:56.735Z,26.10
2019-04-20T17:20:27.115Z,26.50
2019-04-20T17:22:58.293Z,26.00
2019-04-20T17:25:32.297Z,25.60
2019-04-20T17:28:07.115Z,25.60
2019-04-20T17:30:54.870Z,26.10
2019-04-20T17:33:28.449Z,25.80
2019-04-20T17:36:08.511Z,26.90
2019-04-20T17:38:36.111Z,25.80
2019-04-20T17:41:17.902Z,26.20
2019-04-20T17:43:49.640Z,25.40
2019-04-20T17:46:12.151Z,25.60
2019-04-20T17:48:45.244Z,27.00
2019-04-20T17:51:29.135Z,25.70
2019-04-20T17:53:54.588Z,26.80
2019-04-20T17:56:20.307Z,26.10
2019-04-20T17:58:50.271Z,26.20
2019-04-20T18:01:51.888Z,26.50
2019-04-20T18:04:41.614Z,26.80
2019-04-20T18:06:53.749Z,26.80
2019-04-20T18:09:40.282Z,26.90
2019-04-20T18:11:51.157Z,28.00
2019-04-20T18:14:41.924Z,28.80
2019-04-20T18:17:10.228Z,30.00
2019-04-20T18:19:34.245Z,30.70
2019-04-20T18:22:03.824Z,32.70
2019-04-20T18:24:59.694Z,32.80
2019-04-20T18:27:30.068Z,33.10
2019-04-20T18:29:52.807Z,33.70
2019-04-20T18:32:23.219Z,34.90
2019-04-20T18:35:01.711Z,35.50
2019-04-20T18:37:30.802Z,35.70
2019-04-20T18:40:06.764Z,35.50
2019-04-20T18:42:38.869Z,36.30
2019-04-20T18:45:25.665Z,36.60
2019-04-20T18:51:17.716Z,35.90
2019-04-20T18:53:50.038Z,35.70
2019-04-20T18:56:25.612Z,36.50
2019-04-20T18:58:51.278Z,36.30
2019-04-20T19:01:29.398Z,35.90
2019-04-20T19:03:53.938Z,35.50
2019-04-20T19:06:23.890Z,35.30
2019-04-20T19:08:54.259Z,35.00
2019-04-20T19:11:27.035Z,35.20
2019-04-20T19:14:25.120Z,35.60
2019-04-20T19:17:02.077Z,35.70
2019-04-20T19:19:36.992Z,35.80
2019-04-20T19:21:58.410Z,36.10
2019-04-20T19:24:32.707Z,36.00
2019-04-20T19:27:03.556Z,37.20
2019-04-20T19:29:37.607Z,37.00
2019-04-20T19:32:21.141Z,37.10
2019-04-20T19:34:48.830Z,36.90
2019-04-20T19:37:15.585Z,37.00
2019-04-20T19:39:57.141Z,36.80
2019-04-20T19:42:27.650Z,37.10
2019-04-20T19:44:59.552Z,36.90
2019-04-20T19:47:34.814Z,37.00
2019-04-20T19:50:18.488Z,36.60
2019-04-20T19:52:49.027Z,37.20
2019-04-20T19:55:06.355Z,37.40
2019-04-20T19:57:39.863Z,37.80
2019-04-20T19:59:55.529Z,37.70
2019-04-20T20:02:23.708Z,38.30
2019-04-20T20:04:59.248Z,38.70
2019-04-20T20:07:31.030Z,38.20
2019-04-20T20:10:00.487Z,38.30
2019-04-20T20:12:29.427Z,38.10
2019-04-20T20:15:01.650Z,38.30
2019-04-20T20:17:48.805Z,38.20
2019-04-20T20:20:30.776Z,37.30
2019-04-20T20:22:42.744Z,36.30
2019-04-20T20:25:09.391Z,35.30
2019-04-20T20:27:47.503Z,35.60
2019-04-20T20:30:20.456Z,35.30
2019-04-20T20:33:04.930Z,35.00
2019-04-20T20:35:22.008Z,36.50
2019-04-20T20:37:53.402Z,36.00
2019-04-20T20:40:26.601Z,35.00
2019-04-20T20:43:01.551Z,35.10
2019-04-20T20:45:29.507Z,35.60
2019-04-20T20:48:09.447Z,35.50
2019-04-20T20:50:50.176Z,36.80
2019-04-20T20:53:10.199Z,35.70
2019-04-20T20:55:37.090Z,37.30
2019-04-20T20:58:08.568Z,35.90
2019-04-20T21:00:45.222Z,37.00
2019-04-20T21:03:06.015Z,37.10
2019-04-20T21:05:35.696Z,36.90
2019-04-20T21:08:05.896Z,35.30
2019-04-20T21:10:41.007Z,37.10
2019-04-20T21:13:10.222Z,36.20
2019-04-20T21:15:40.503Z,35.40
2019-04-20T21:18:32.178Z,35.30
2019-04-20T21:21:00.437Z,37.00
2019-04-20T21:23:28.111Z,36.40
2019-04-20T21:26:04.755Z,37.90
2019-04-20T21:28:36.327Z,37.40
2019-04-20T21:31:13.788Z,36.10
2019-04-20T21:33:40.574Z,38.40
2019-04-20T21:36:13.582Z,37.00
2019-04-20T21:38:44.323Z,38.60
2019-04-20T21:41:16.872Z,37.30
2019-04-20T21:43:46.397Z,38.60
2019-04-20T21:46:16.836Z,37.70
2019-04-20T21:48:59.625Z,36.80
2019-04-20T21:51:30.526Z,38.70
2019-04-20T21:53:49.630Z,36.90
2019-04-20T21:56:19.819Z,37.20
2019-04-20T21:58:56.564Z,37.80
2019-04-20T22:01:30.476Z,37.40
2019-04-20T22:03:54.333Z,37.20
2019-04-20T22:06:24.472Z,38.10
2019-04-20T22:08:59.879Z,38.90
2019-04-20T22:11:25.932Z,37.50
2019-04-20T22:13:57.437Z,39.70
2019-04-20T22:16:36.550Z,39.00
2019-04-20T22:19:16.152Z,38.30
2019-04-20T22:21:49.519Z,39.50
2019-04-20T22:24:15.211Z,37.20
2019-04-20T22:26:51.290Z,39.10
2019-04-20T22:29:06.273Z,37.30
2019-04-20T22:31:36.202Z,36.80
2019-04-20T22:34:07.713Z,37.30
2019-04-20T22:36:43.356Z,38.90
2019-04-20T22:39:24.497Z,40.30
2019-04-20T22:41:59.193Z,39.10
2019-04-20T22:44:26.614Z,39.10
2019-04-20T22:46:56.329Z,38.60
2019-04-20T22:49:41.371Z,40.70
2019-04-20T22:52:05.857Z,39.90
2019-04-20T22:54:46.817Z,37.90
2019-04-20T22:57:12.188Z,39.00
2019-04-20T22:59:42.177Z,40.40
2019-04-20T23:02:06.155Z,37.40
2019-04-20T23:04:36.998Z,38.60
2019-04-20T23:07:08.438Z,39.70
2019-04-20T23:09:46.858Z,39.60
2019-04-20T23:12:15.725Z,36.30
2019-04-20T23:14:42.420Z,38.10
2019-04-20T23:17:18.104Z,38.40
2019-04-20T23:19:49.527Z,38.30
2019-04-20T23:22:16.095Z,37.90
2019-04-20T23:24:47.358Z,38.80
2019-04-20T23:27:23.611Z,38.30
2019-04-20T23:29:49.239Z,39.40
2019-04-20T23:32:19.938Z,38.20
2019-04-20T23:34:57.730Z,38.70
2019-04-20T23:37:29.265Z,39.10
2019-04-20T23:39:54.786Z,37.80
2019-04-20T23:42:33.585Z,39.60
2019-04-20T23:45:03.723Z,40.00
2019-04-20T23:47:46.672Z,39.80
2019-04-20T23:50:34.310Z,39.50
2019-04-20T23:53:06.718Z,39.40
2019-04-20T23:55:18.999Z,40.00
2019-04-20T23:57:55.881Z,39.50
